Time;durP1;ratioP1;P1;durP2;ratioP2;P2;SDS_P1;SDS_P2;PMS_P1;PMS_P2;Temp;Humidity;BMP_temperature;BMP_pressure;BME280_temperature;BME280_humidity;BME280_pressure;Samples;Min_cycle;Max_cycle;Signal;HPM_P1;HPM_P2
2022/07/19 00:00:19;;;;;;;6.93;2.93;;;22.00;9.70;;;;;;5056182;28;20481;-73
2022/07/19 00:02:46;;;;;;;8.10;3.30;;;22.00;9.90;;;;;;5057355;28;20453;-73
2022/07/19 00:05:14;;;;;;;7.43;3.73;;;22.00;9.90;;;;;;5055928;28;20783;-73
2022/07/19 00:07:43;;;;;;;10.50;4.80;;;21.90;10.00;;;;;;5056331;28;20470;-73
2022/07/19 00:10:11;;;;;;;7.30;3.80;;;21.90;10.20;;;;;;5057788;28;20461;-73
2022/07/19 00:12:39;;;;;;;9.67;4.00;;;21.90;10.20;;;;;;5056606;28;20492;-73
2022/07/19 00:15:08;;;;;;;6.70;4.10;;;21.80;10.70;;;;;;5055350;28;20489;-73
2022/07/19 00:17:35;;;;;;;7.47;3.83;;;21.70;10.70;;;;;;5056220;28;20462;-73
2022/07/19 00:20:02;;;;;;;6.83;3.63;;;21.70;10.40;;;;;;5054806;28;20481;-73
2022/07/19 00:22:29;;;;;;;6.50;3.30;;;21.70;10.30;;;;;;5056064;28;21126;-73
2022/07/19 00:24:57;;;;;;;7.10;4.00;;;21.60;10.20;;;;;;5056941;28;20468;-73
2022/07/19 00:27:24;;;;;;;6.63;4.17;;;21.50;10.50;;;;;;5054497;28;20545;-73
2022/07/19 00:29:51;;;;;;;8.33;3.83;;;21.50;10.90;;;;;;5060221;28;20463;-73
2022/07/19 00:32:18;;;;;;;8.80;4.23;;;21.50;10.80;;;;;;5049998;28;20477;-72
2022/07/19 00:34:45;;;;;;;8.30;4.43;;;21.40;10.90;;;;;;5040781;28;20970;-72
2022/07/19 00:40:36;;;;;;;7.50;4.03;;;21.30;11.20;;;;;;5045885;28;20460;-72
2022/07/19 00:43:03;;;;;;;8.87;3.77;;;21.20;11.30;;;;;;5053782;28;20562;-73
2022/07/19 00:45:30;;;;;;;7.90;4.67;;;21.20;11.30;;;;;;5050408;28;20478;-73
2022/07/19 00:47:57;;;;;;;7.43;4.30;;;21.20;11.40;;;;;;5046401;28;20990;-73
2022/07/19 00:50:24;;;;;;;11.10;4.97;;;21.10;12.40;;;;;;5051684;28;20982;-73
2022/07/19 00:52:53;;;;;;;9.17;5.53;;;21.10;11.90;;;;;;5050492;28;20462;-73
2022/07/19 00:55:21;;;;;;;8.67;4.50;;;21.00;12.20;;;;;;5045253;28;20492;-73
2022/07/19 00:57:50;;;;;;;7.37;4.97;;;21.00;12.30;;;;;;5045164;28;20489;-72
2022/07/19 01:00:18;;;;;;;9.27;4.40;;;20.90;12.50;;;;;;5047525;28;21015;-73
2022/07/19 01:02:45;;;;;;;7.63;4.80;;;20.90;12.60;;;;;;5034276;28;20466;-73
2022/07/19 01:05:12;;;;;;;9.23;3.63;;;20.90;12.40;;;;;;5047091;28;20473;-73
2022/07/19 01:07:42;;;;;;;7.70;4.30;;;20.80;12.20;;;;;;5046420;28;20462;-72
2022/07/19 01:10:10;;;;;;;7.60;4.70;;;20.80;12.30;;;;;;5046113;28;20641;-72
2022/07/19 01:12:38;;;;;;;7.77;3.77;;;20.80;12.40;;;;;;5039214;28;20950;-73
2022/07/19 01:15:16;;;;;;;10.60;4.60;;;20.70;12.60;;;;;;5048133;28;20477;-73
2022/07/19 01:17:43;;;;;;;6.83;3.70;;;20.70;12.80;;;;;;5034370;28;20829;-73
2022/07/19 01:20:11;;;;;;;11.20;4.63;;;20.70;12.50;;;;;;5048148;28;20493;-72
2022/07/19 01:22:39;;;;;;;8.90;4.83;;;20.70;12.60;;;;;;5044059;28;20471;-73
2022/07/19 01:25:07;;;;;;;7.50;3.83;;;20.60;13.20;;;;;;5047480;28;20488;-72
2022/07/19 01:27:39;;;;;;;7.57;4.83;;;20.60;12.60;;;;;;5049776;28;20465;-72
2022/07/19 01:30:12;;;;;;;8.47;4.70;;;20.60;12.80;;;;;;5049061;28;20465;-72
2022/07/19 01:32:39;;;;;;;9.23;5.53;;;20.50;13.20;;;;;;5051407;28;20462;-73
2022/07/19 01:35:07;;;;;;;11.50;4.07;;;20.50;13.50;;;;;;5047400;28;21030;-73
2022/07/19 01:37:34;;;;;;;10.00;4.20;;;20.40;13.40;;;;;;5046454;28;20462;-72
2022/07/19 01:40:03;;;;;;;7.20;4.23;;;20.40;13.40;;;;;;5046082;28;20481;-73
2022/07/19 01:42:29;;;;;;;9.03;3.83;;;20.40;13.10;;;;;;5047140;28;20469;-73
2022/07/19 01:44:56;;;;;;;7.33;4.00;;;20.40;12.90;;;;;;5047690;28;20496;-72
2022/07/19 01:47:23;;;;;;;11.40;5.70;;;20.40;12.90;;;;;;5061335;28;20461;-73
2022/07/19 01:49:50;;;;;;;10.40;4.17;;;20.40;13.50;;;;;;5046673;28;20462;-73
2022/07/19 01:52:17;;;;;;;6.37;4.30;;;20.40;13.40;;;;;;5041455;28;20471;-72
2022/07/19 01:54:44;;;;;;;7.23;4.60;;;20.30;13.40;;;;;;5047878;28;20460;-73
2022/07/19 01:57:13;;;;;;;9.77;4.80;;;20.30;13.40;;;;;;5062880;28;20469;-73
2022/07/19 01:59:40;;;;;;;9.70;6.50;;;20.30;13.30;;;;;;5050478;28;20458;-72
2022/07/19 02:02:07;;;;;;;9.27;4.90;;;20.20;14.10;;;;;;5050051;28;20474;-72
2022/07/19 02:04:34;;;;;;;9.10;5.50;;;20.20;13.90;;;;;;5050039;28;20477;-72
2022/07/19 02:07:01;;;;;;;12.20;6.30;;;20.10;14.10;;;;;;5050661;28;20482;-72
2022/07/19 02:09:28;;;;;;;9.10;5.17;;;20.00;14.30;;;;;;5050161;28;20476;-73
2022/07/19 02:11:54;;;;;;;10.50;5.27;;;20.00;14.60;;;;;;5049266;28;20469;-72
2022/07/19 02:14:23;;;;;;;8.70;5.40;;;19.90;14.60;;;;;;5051170;28;20985;-72
2022/07/19 02:16:49;;;;;;;9.33;5.47;;;19.80;14.90;;;;;;5051091;28;20485;-72
2022/07/19 02:19:16;;;;;;;10.87;5.73;;;19.80;14.70;;;;;;5050404;28;20815;-72
2022/07/19 02:21:43;;;;;;;10.33;5.60;;;19.70;15.30;;;;;;5049795;28;20484;-73
2022/07/19 02:24:10;;;;;;;8.10;5.70;;;19.60;15.60;;;;;;5050751;28;20462;-69
2022/07/19 02:26:37;;;;;;;9.00;5.20;;;19.60;15.30;;;;;;5051084;28;20478;-69
2022/07/19 02:29:04;;;;;;;10.00;5.77;;;19.60;15.40;;;;;;5049151;28;20458;-69
2022/07/19 02:31:32;;;;;;;10.10;5.93;;;19.60;15.40;;;;;;5050511;28;20469;-70
2022/07/19 02:33:59;;;;;;;7.83;5.20;;;19.60;15.30;;;;;;5050464;28;20466;-69
2022/07/19 02:36:26;;;;;;;10.73;4.97;;;19.60;15.20;;;;;;5050685;28;20473;-69
2022/07/19 02:38:53;;;;;;;9.73;5.67;;;19.50;15.60;;;;;;5049946;28;20462;-69
2022/07/19 02:41:20;;;;;;;9.20;5.77;;;19.50;15.50;;;;;;5048220;28;20481;-69
2022/07/19 02:43:46;;;;;;;8.23;5.60;;;19.40;15.70;;;;;;5047766;28;20465;-69
2022/07/19 02:46:13;;;;;;;8.50;5.10;;;19.40;16.00;;;;;;5049280;28;20545;-69
2022/07/19 02:48:42;;;;;;;7.73;4.77;;;19.30;16.00;;;;;;5050626;28;20504;-69
2022/07/19 02:51:11;;;;;;;11.63;5.10;;;19.30;16.60;;;;;;5049422;28;20668;-69
2022/07/19 02:53:37;;;;;;;8.37;5.03;;;19.20;16.20;;;;;;5047327;28;20463;-70
2022/07/19 02:56:05;;;;;;;11.13;5.30;;;19.20;16.30;;;;;;5048154;28;20486;-70
2022/07/19 02:58:32;;;;;;;8.30;5.27;;;19.10;16.90;;;;;;5050111;28;20466;-70
2022/07/19 03:00:58;;;;;;;8.80;4.70;;;19.10;16.30;;;;;;5049621;28;20474;-69
2022/07/19 03:06:11;;;;;;;11.73;6.10;;;19.00;16.40;;;;;;5048171;28;20472;-70
2022/07/19 03:08:38;;;;;;;10.90;5.60;;;18.90;17.10;;;;;;5047934;28;20946;-70
2022/07/19 03:11:06;;;;;;;7.50;4.97;;;18.90;17.00;;;;;;5048738;28;20465;-70
2022/07/19 03:13:33;;;;;;;9.90;6.20;;;18.80;17.10;;;;;;5051697;28;20458;-69
2022/07/19 03:15:59;;;;;;;6.90;5.23;;;18.80;16.90;;;;;;5048299;28;20861;-69
2022/07/19 03:18:26;;;;;;;7.40;5.03;;;18.70;17.20;;;;;;5050954;28;20465;-70
2022/07/19 03:20:54;;;;;;;8.43;5.20;;;18.70;17.30;;;;;;5046826;28;20589;-71
2022/07/19 03:23:22;;;;;;;11.63;5.77;;;18.70;17.20;;;;;;5042732;28;20462;-69
2022/07/19 03:25:49;;;;;;;11.33;6.13;;;18.80;17.20;;;;;;5049753;28;20812;-70
2022/07/19 03:28:16;;;;;;;10.30;4.93;;;18.80;17.10;;;;;;5049575;28;20820;-69
2022/07/19 03:30:44;;;;;;;8.77;4.97;;;18.80;16.90;;;;;;5050015;28;20807;-69
2022/07/19 03:33:11;;;;;;;11.80;5.50;;;18.80;16.70;;;;;;5054940;28;20461;-69
2022/07/19 03:35:38;;;;;;;8.10;6.37;;;18.80;16.70;;;;;;5050456;28;20481;-70
2022/07/19 03:38:04;;;;;;;8.40;5.73;;;18.80;16.60;;;;;;5049667;28;20476;-69
2022/07/19 03:40:33;;;;;;;9.90;5.73;;;18.80;16.70;;;;;;5050263;28;20482;-69
2022/07/19 03:42:59;;;;;;;9.30;6.17;;;18.80;16.60;;;;;;5050149;28;20458;-69
2022/07/19 03:45:26;;;;;;;11.57;6.07;;;18.80;16.60;;;;;;5049936;28;20951;-69
2022/07/19 03:47:53;;;;;;;9.00;5.80;;;18.80;16.60;;;;;;5045412;28;20469;-70
2022/07/19 03:53:42;;;;;;;11.13;7.23;;;18.80;16.80;;;;;;5055368;28;20436;-70
2022/07/19 03:56:10;;;;;;;12.40;6.50;;;18.80;16.90;;;;;;5043982;28;20568;-69
2022/07/19 03:58:37;;;;;;;10.20;6.10;;;18.70;16.90;;;;;;5048112;28;20473;-70
2022/07/19 04:01:04;;;;;;;12.23;5.87;;;18.70;16.90;;;;;;5049157;28;20473;-70
2022/07/19 04:03:31;;;;;;;9.83;5.83;;;18.70;17.00;;;;;;5050624;28;20470;-70
2022/07/19 04:05:58;;;;;;;9.77;6.70;;;18.80;16.90;;;;;;5048146;28;20494;-69
2022/07/19 04:08:25;;;;;;;17.30;5.13;;;18.70;17.20;;;;;;5048639;28;20462;-69
2022/07/19 04:10:51;;;;;;;7.00;5.10;;;18.70;17.20;;;;;;5049713;28;20537;-70
2022/07/19 04:13:20;;;;;;;8.10;5.50;;;18.70;17.20;;;;;;5047215;28;21034;-69
2022/07/19 04:15:46;;;;;;;6.77;4.73;;;18.70;17.70;;;;;;5049164;28;20508;-69
2022/07/19 04:18:14;;;;;;;8.00;5.60;;;18.70;17.80;;;;;;5049374;28;20898;-70
2022/07/19 04:20:41;;;;;;;6.40;5.07;;;18.70;17.70;;;;;;5040061;28;20485;-70
2022/07/19 04:23:08;;;;;;;7.60;4.83;;;18.70;18.00;;;;;;5060456;28;20469;-70
2022/07/19 04:25:35;;;;;;;6.90;4.33;;;18.70;18.20;;;;;;5050498;28;20489;-69
2022/07/19 04:28:02;;;;;;;7.30;4.87;;;18.60;18.00;;;;;;5055050;28;20462;-68
2022/07/19 04:30:30;;;;;;;11.77;4.80;;;18.70;17.80;;;;;;5047626;28;20919;-69
2022/07/19 04:32:57;;;;;;;7.10;4.80;;;18.80;17.70;;;;;;5046581;28;20461;-69
2022/07/19 04:35:24;;;;;;;8.73;4.80;;;19.10;17.60;;;;;;5046172;28;20478;-70
2022/07/19 04:37:51;;;;;;;5.90;4.40;;;19.60;16.80;;;;;;5048221;28;20828;-70
2022/07/19 04:40:17;;;;;;;11.30;5.13;;;20.00;15.80;;;;;;5046431;28;20458;-70
2022/07/19 04:42:44;;;;;;;8.23;4.67;;;20.60;15.10;;;;;;5039893;28;20465;-70
2022/07/19 04:45:11;;;;;;;7.73;4.57;;;21.30;13.80;;;;;;5044178;28;20485;-72
2022/07/19 04:47:39;;;;;;;7.87;5.10;;;21.50;13.10;;;;;;5047665;28;20472;-73
2022/07/19 04:50:07;;;;;;;7.80;4.60;;;21.40;13.00;;;;;;5048194;28;20810;-72
2022/07/19 04:52:34;;;;;;;7.67;5.00;;;21.10;13.30;;;;;;5032164;28;20989;-73
2022/07/19 04:55:01;;;;;;;8.60;5.00;;;20.90;13.60;;;;;;5051677;28;20486;-72
2022/07/19 04:57:27;;;;;;;8.60;5.37;;;20.90;13.80;;;;;;5046135;28;20462;-71
2022/07/19 04:59:54;;;;;;;8.53;4.90;;;21.70;13.30;;;;;;5049191;28;20845;-72
2022/07/19 05:02:21;;;;;;;6.90;4.77;;;23.20;11.30;;;;;;5045520;28;20470;-72
2022/07/19 05:04:49;;;;;;;7.40;5.10;;;24.60;9.00;;;;;;5048904;28;20456;-72
2022/07/19 05:07:16;;;;;;;7.00;4.23;;;25.80;6.50;;;;;;5047763;28;20465;-72
2022/07/19 05:09:43;;;;;;;7.80;5.17;;;26.90;5.00;;;;;;5048305;28;20507;-73
2022/07/19 05:12:10;;;;;;;8.60;5.80;;;27.90;3.70;;;;;;5049717;28;20454;-73
2022/07/19 05:14:37;;;;;;;7.10;4.67;;;28.80;2.20;;;;;;5049569;28;20458;-72
2022/07/19 05:17:04;;;;;;;8.37;4.83;;;29.60;1.20;;;;;;5048204;28;20485;-72
2022/07/19 05:19:31;;;;;;;5.77;4.00;;;30.40;1.00;;;;;;5049368;28;20462;-73
2022/07/19 05:21:59;;;;;;;8.80;4.67;;;31.20;1.00;;;;;;5047977;28;20488;-73
2022/07/19 05:24:26;;;;;;;6.20;4.50;;;31.80;1.00;;;;;;5048970;28;20462;-73
2022/07/19 05:26:53;;;;;;;5.70;3.83;;;32.50;1.00;;;;;;5048752;28;20488;-73
2022/07/19 05:29:20;;;;;;;8.67;5.10;;;33.10;1.00;;;;;;5040268;28;20878;-72
2022/07/19 05:31:47;;;;;;;7.40;4.00;;;33.70;1.00;;;;;;5055817;28;20556;-73
2022/07/19 05:34:14;;;;;;;6.00;3.83;;;34.30;1.00;;;;;;5051417;28;21033;-73
2022/07/19 05:36:41;;;;;;;11.10;4.37;;;34.90;1.00;;;;;;5054682;28;20484;-73
2022/07/19 05:39:09;;;;;;;7.73;4.10;;;35.50;1.00;;;;;;5052915;28;20993;-73
2022/07/19 05:41:36;;;;;;;11.27;4.20;;;36.10;1.00;;;;;;5053225;28;20482;-73
2022/07/19 05:44:03;;;;;;;10.07;4.30;;;36.70;1.00;;;;;;5042509;28;20552;-73
2022/07/19 05:46:30;;;;;;;7.20;3.67;;;37.30;1.00;;;;;;5050935;28;20482;-73
2022/07/19 05:48:56;;;;;;;11.27;4.37;;;37.60;1.00;;;;;;5052591;28;20949;-73
2022/07/19 05:51:23;;;;;;;7.13;3.47;;;38.20;1.00;;;;;;5052792;28;20450;-73
2022/07/19 05:53:50;;;;;;;7.47;3.80;;;38.80;1.00;;;;;;5052844;28;20977;-73
2022/07/19 05:56:18;;;;;;;8.70;4.57;;;39.20;1.00;;;;;;5054774;28;20485;-73
2022/07/19 05:58:45;;;;;;;8.93;3.97;;;39.80;1.00;;;;;;5052564;28;20462;-73
2022/07/19 06:01:18;;;;;;;6.13;3.90;;;40.30;1.00;;;;;;5041844;28;20476;-73
2022/07/19 06:03:45;;;;;;;6.07;4.27;;;40.70;1.00;;;;;;5056593;28;20462;-73
2022/07/19 06:06:13;;;;;;;6.00;3.80;;;41.00;1.00;;;;;;5054492;28;20482;-73
2022/07/19 06:08:40;;;;;;;5.63;3.47;;;41.60;1.00;;;;;;5059867;28;20462;-73
2022/07/19 06:11:06;;;;;;;8.50;3.90;;;42.00;1.00;;;;;;5053708;28;20837;-73
2022/07/19 06:13:35;;;;;;;8.97;4.33;;;42.40;1.00;;;;;;5052631;28;20556;-74
2022/07/19 06:16:02;;;;;;;11.10;3.90;;;43.00;1.00;;;;;;5059946;28;20894;-74
2022/07/19 06:18:30;;;;;;;7.90;4.53;;;43.60;1.00;;;;;;5056400;28;20461;-73
2022/07/19 06:20:57;;;;;;;6.73;3.70;;;44.10;1.00;;;;;;5049053;28;20468;-73
2022/07/19 06:23:23;;;;;;;8.67;3.47;;;44.70;1.00;;;;;;5052506;28;20473;-74
2022/07/19 06:25:50;;;;;;;5.23;3.13;;;45.20;1.00;;;;;;5051516;28;20488;-74
2022/07/19 06:28:17;;;;;;;5.20;3.80;;;45.60;1.00;;;;;;5052884;28;20458;-74
2022/07/19 06:30:45;;;;;;;4.97;3.17;;;45.70;1.00;;;;;;5062081;28;20482;-74
2022/07/19 06:33:12;;;;;;;6.87;3.63;;;46.10;1.00;;;;;;5044149;28;20466;-74
2022/07/19 06:35:40;;;;;;;6.20;3.87;;;46.40;1.00;;;;;;5057635;28;20482;-74
2022/07/19 06:38:07;;;;;;;5.13;3.13;;;46.70;1.00;;;;;;5052247;28;20938;-74
2022/07/19 06:40:34;;;;;;;6.50;3.13;;;47.10;1.00;;;;;;5055687;28;20464;-74
2022/07/19 06:43:01;;;;;;;5.10;3.20;;;47.40;1.00;;;;;;5048841;28;20570;-74
2022/07/19 06:45:28;;;;;;;5.30;2.63;;;47.70;1.00;;;;;;5053432;28;20830;-74
2022/07/19 06:47:56;;;;;;;4.77;2.40;;;48.00;1.00;;;;;;5054428;28;20469;-74
2022/07/19 06:50:23;;;;;;;7.17;2.70;;;48.40;1.00;;;;;;5051588;28;20473;-73
2022/07/19 06:52:50;;;;;;;4.70;2.60;;;48.80;1.00;;;;;;5048489;28;20484;-74
2022/07/19 06:55:17;;;;;;;5.23;2.40;;;49.30;1.00;;;;;;5050804;28;20488;-73
2022/07/19 06:57:43;;;;;;;5.70;2.20;;;49.80;1.00;;;;;;5052072;28;20464;-74
2022/07/19 07:00:12;;;;;;;5.10;2.60;;;50.30;1.00;;;;;;5041568;28;20481;-74
2022/07/19 07:02:39;;;;;;;8.87;2.93;;;50.80;1.00;;;;;;5050589;28;20478;-74
2022/07/19 07:05:08;;;;;;;4.90;2.50;;;51.20;1.00;;;;;;5050974;28;20477;-74
2022/07/19 07:07:35;;;;;;;4.60;2.30;;;51.80;1.00;;;;;;5057801;28;20464;-74
2022/07/19 07:10:03;;;;;;;5.83;2.40;;;51.90;1.00;;;;;;5057202;28;20458;-73
2022/07/19 07:12:30;;;;;;;4.77;2.63;;;52.20;1.00;;;;;;5046383;28;20899;-75
2022/07/19 07:14:57;;;;;;;6.90;2.20;;;52.50;1.00;;;;;;5050272;28;20457;-74
2022/07/19 07:17:24;;;;;;;5.53;1.80;;;53.00;1.00;;;;;;5048776;28;20464;-74
2022/07/19 07:19:51;;;;;;;4.40;1.83;;;53.30;1.00;;;;;;5050264;28;20465;-75
2022/07/19 07:22:19;;;;;;;4.17;2.33;;;53.20;1.00;;;;;;5045943;28;20500;-75
2022/07/19 07:24:46;;;;;;;5.73;2.40;;;53.20;1.00;;;;;;5049010;28;20456;-75
2022/07/19 07:27:13;;;;;;;3.37;2.13;;;53.20;1.00;;;;;;5049033;28;20461;-75
2022/07/19 07:29:39;;;;;;;4.70;1.87;;;53.10;1.00;;;;;;5049403;28;20848;-75
2022/07/19 07:32:07;;;;;;;6.80;2.20;;;52.90;1.00;;;;;;5046001;28;20466;-76
2022/07/19 07:34:33;;;;;;;5.90;2.13;;;53.10;1.00;;;;;;5044093;28;20458;-76
2022/07/19 07:37:00;;;;;;;6.23;2.00;;;53.60;1.00;;;;;;5043963;28;20489;-76
2022/07/19 07:39:28;;;;;;;4.03;2.03;;;53.80;1.00;;;;;;5045972;28;20543;-76
2022/07/19 07:41:55;;;;;;;6.30;2.10;;;54.40;1.00;;;;;;5048090;28;20965;-76
2022/07/19 07:44:22;;;;;;;4.67;1.73;;;54.20;1.00;;;;;;5057837;28;20458;-76
2022/07/19 07:46:48;;;;;;;4.40;1.80;;;54.30;1.00;;;;;;5041269;28;20987;-76
2022/07/19 07:49:15;;;;;;;6.00;2.20;;;54.30;1.00;;;;;;5042313;28;20840;-76
2022/07/19 07:51:42;;;;;;;5.40;2.10;;;54.30;1.00;;;;;;5049316;28;20458;-75
2022/07/19 07:54:09;;;;;;;4.13;1.87;;;54.10;1.00;;;;;;5047676;28;20453;-76
2022/07/19 07:56:37;;;;;;;4.23;1.80;;;53.80;1.00;;;;;;5049967;28;20473;-76
2022/07/19 07:59:04;;;;;;;5.93;1.80;;;54.00;1.00;;;;;;5050338;28;20469;-76
2022/07/19 08:01:31;;;;;;;4.87;2.00;;;53.90;1.00;;;;;;5048722;28;20474;-76
2022/07/19 08:03:57;;;;;;;6.30;1.90;;;54.50;1.00;;;;;;5045908;28;20465;-75
2022/07/19 08:06:24;;;;;;;6.10;1.70;;;54.70;1.00;;;;;;5058994;28;20480;-76
2022/07/19 08:08:51;;;;;;;4.07;2.00;;;54.70;1.00;;;;;;5047993;28;20961;-76
2022/07/19 08:11:18;;;;;;;5.00;1.70;;;54.60;1.00;;;;;;5055551;28;20915;-76
2022/07/19 08:13:46;;;;;;;4.90;1.70;;;53.80;1.00;;;;;;5046281;28;20451;-76
2022/07/19 08:16:13;;;;;;;7.43;2.20;;;53.70;1.00;;;;;;5055479;28;20481;-76
2022/07/19 08:18:40;;;;;;;3.83;1.60;;;53.90;1.00;;;;;;5054985;28;20456;-76
2022/07/19 08:21:08;;;;;;;7.90;2.13;;;53.60;1.00;;;;;;5070068;28;20456;-76
2022/07/19 08:23:35;;;;;;;6.43;1.87;;;53.20;1.00;;;;;;5049366;28;20492;-76
2022/07/19 08:26:01;;;;;;;4.50;1.77;;;53.30;1.00;;;;;;5047415;28;20551;-75
2022/07/19 08:28:28;;;;;;;3.83;1.60;;;53.50;1.00;;;;;;5049445;28;20468;-75
2022/07/19 08:30:56;;;;;;;3.33;1.70;;;53.80;1.00;;;;;;5048241;28;20982;-75
2022/07/19 08:33:23;;;;;;;5.40;1.63;;;54.60;1.00;;;;;;5049556;28;20457;-75
2022/07/19 08:35:50;;;;;;;5.83;1.50;;;54.90;1.00;;;;;;5053501;28;20496;-75
2022/07/19 08:38:17;;;;;;;3.10;1.40;;;54.60;1.00;;;;;;5047045;28;20594;-75
2022/07/19 08:40:44;;;;;;;5.70;1.80;;;54.80;1.00;;;;;;5049222;28;20457;-75
2022/07/19 08:43:12;;;;;;;3.30;1.63;;;55.20;1.00;;;;;;5049106;28;20489;-75
2022/07/19 08:45:41;;;;;;;4.50;1.57;;;55.70;1.00;;;;;;5040409;28;20574;-75
2022/07/19 08:48:09;;;;;;;3.30;1.30;;;56.10;1.00;;;;;;5047576;28;20954;-75
2022/07/19 08:50:36;;;;;;;3.50;1.50;;;56.10;1.00;;;;;;5048948;28;20457;-75
2022/07/19 08:53:04;;;;;;;9.03;2.03;;;55.60;1.00;;;;;;5048701;28;20977;-75
2022/07/19 08:55:31;;;;;;;4.80;1.70;;;55.10;1.00;;;;;;5053185;28;20485;-75
2022/07/19 08:57:57;;;;;;;6.67;1.87;;;54.60;1.00;;;;;;5047396;28;20823;-75
2022/07/19 09:00:24;;;;;;;5.33;1.83;;;54.60;1.00;;;;;;5048851;28;20468;-75
2022/07/19 09:02:57;;;;;;;3.63;1.30;;;54.90;1.00;;;;;;5048737;28;20218;-75
2022/07/19 09:05:25;;;;;;;6.60;2.10;;;55.50;1.00;;;;;;5049004;28;20481;-75
2022/07/19 09:08:12;;;;;;;3.83;1.60;;;55.60;1.00;;;;;;5055311;28;20461;-75
2022/07/19 09:10:43;;;;;;;4.93;1.83;;;55.30;1.00;;;;;;5050989;28;20457;-75
2022/07/19 09:13:12;;;;;;;3.33;1.80;;;55.30;1.00;;;;;;5055448;28;20450;-75
2022/07/19 09:15:49;;;;;;;4.07;1.80;;;55.80;1.00;;;;;;5053407;28;20679;-75
2022/07/19 09:18:19;;;;;;;5.30;1.50;;;56.30;1.00;;;;;;5043831;28;20457;-75
2022/07/19 09:20:52;;;;;;;4.63;1.80;;;56.50;1.00;;;;;;5054970;28;20469;-76
2022/07/19 09:23:19;;;;;;;3.50;1.90;;;57.30;1.00;;;;;;5053315;28;20478;-76
2022/07/19 09:25:48;;;;;;;3.00;1.40;;;57.90;1.00;;;;;;5053876;28;20256;-75
2022/07/19 09:28:16;;;;;;;3.70;1.87;;;58.20;1.00;;;;;;5057844;28;20298;-76
2022/07/19 09:30:44;;;;;;;3.30;1.77;;;58.10;1.00;;;;;;5054956;28;20223;-75
2022/07/19 09:33:13;;;;;;;4.07;1.57;;;57.80;1.00;;;;;;5055603;28;20227;-76
2022/07/19 09:35:43;;;;;;;4.47;1.60;;;57.40;1.00;;;;;;5049444;28;20725;-75
2022/07/19 09:38:19;;;;;;;3.80;1.73;;;57.30;1.00;;;;;;5055598;28;20206;-75
2022/07/19 09:40:46;;;;;;;3.40;1.77;;;56.90;1.00;;;;;;5054786;28;20212;-76
2022/07/19 09:43:12;;;;;;;3.30;1.77;;;55.60;1.00;;;;;;5055245;28;21031;-77
2022/07/19 09:45:39;;;;;;;3.60;1.70;;;54.80;1.00;;;;;;5058159;28;20481;-77
2022/07/19 09:51:28;;;;;;;4.67;2.20;;;49.60;1.00;;;;;;5055505;28;20447;-75
2022/07/19 09:53:59;;;;;;;4.53;2.10;;;46.30;1.00;;;;;;5055389;28;20472;-75
2022/07/19 09:56:28;;;;;;;3.97;1.93;;;43.80;1.00;;;;;;5054306;28;20486;-76
2022/07/19 09:58:56;;;;;;;5.50;2.03;;;41.80;1.00;;;;;;5053519;28;20974;-76
2022/07/19 10:01:24;;;;;;;3.97;2.00;;;40.20;1.00;;;;;;5052819;28;20470;-76
2022/07/19 10:03:52;;;;;;;5.33;2.37;;;39.10;1.00;;;;;;5054421;28;20488;-76
2022/07/19 10:06:19;;;;;;;6.80;2.30;;;38.10;1.00;;;;;;5049356;28;20855;-76
2022/07/19 10:08:46;;;;;;;5.50;2.43;;;37.20;1.00;;;;;;5052831;28;20469;-76
2022/07/19 10:11:14;;;;;;;6.70;2.97;;;36.50;1.00;;;;;;5050863;28;20462;-76
2022/07/19 10:13:42;;;;;;;4.70;2.40;;;35.80;1.00;;;;;;5055174;28;20458;-76
2022/07/19 10:16:15;;;;;;;7.43;2.60;;;35.20;1.00;;;;;;5054064;28;20485;-75
2022/07/19 10:18:52;;;;;;;4.87;2.77;;;34.70;1.00;;;;;;5049844;28;20967;-75
2022/07/19 10:21:19;;;;;;;4.87;2.63;;;34.30;1.00;;;;;;5048595;28;20868;-75
2022/07/19 10:23:51;;;;;;;5.70;2.43;;;33.80;1.00;;;;;;5050865;28;21013;-75
2022/07/19 10:26:37;;;;;;;7.23;3.00;;;33.60;1.00;;;;;;5047932;28;20478;-76
2022/07/19 10:29:09;;;;;;;6.70;2.80;;;33.50;1.00;;;;;;5036713;28;20530;-75
2022/07/19 10:31:36;;;;;;;4.60;2.73;;;33.30;1.00;;;;;;5047464;28;20485;-75
2022/07/19 10:34:05;;;;;;;4.60;2.37;;;33.20;1.00;;;;;;5050578;28;20467;-75
2022/07/19 10:36:34;;;;;;;4.30;2.50;;;33.00;1.00;;;;;;5053621;28;20776;-75
2022/07/19 10:39:20;;;;;;;5.00;2.63;;;32.90;1.00;;;;;;5037718;28;20741;-74
2022/07/19 10:42:05;;;;;;;5.77;2.53;;;32.80;1.00;;;;;;5046289;28;20458;-75
2022/07/19 10:44:33;;;;;;;8.30;2.70;;;32.60;1.00;;;;;;5050122;28;20496;-75
2022/07/19 10:46:59;;;;;;;5.83;2.70;;;32.50;1.00;;;;;;5047433;28;20482;-76
2022/07/19 10:49:43;;;;;;;5.63;2.60;;;32.50;1.00;;;;;;5050031;28;20957;-75
2022/07/19 10:52:35;;;;;;;4.77;2.57;;;32.40;1.00;;;;;;5047933;28;20477;-75
2022/07/19 10:55:32;;;;;;;5.70;2.87;;;32.40;1.00;;;;;;5045914;28;20562;-75
2022/07/19 10:58:11;;;;;;;5.17;2.80;;;32.40;1.00;;;;;;4986441;28;20604;-76
2022/07/19 11:00:46;;;;;;;5.77;2.60;;;32.30;1.00;;;;;;5037197;28;20824;-75
2022/07/19 11:03:30;;;;;;;6.57;2.73;;;32.20;1.00;;;;;;5046708;28;20576;-75
2022/07/19 11:05:59;;;;;;;5.63;2.77;;;32.20;1.00;;;;;;5047250;28;20486;-75
2022/07/19 11:08:33;;;;;;;5.17;2.57;;;32.20;1.00;;;;;;5056939;28;20954;-75
2022/07/19 11:11:05;;;;;;;5.33;2.40;;;32.20;1.00;;;;;;5067176;28;21127;-75
2022/07/19 11:13:33;;;;;;;5.63;2.60;;;32.20;1.00;;;;;;5055044;28;20461;-75
2022/07/19 11:16:02;;;;;;;6.10;2.70;;;32.20;1.00;;;;;;5049063;28;20998;-75
2022/07/19 11:18:29;;;;;;;6.37;2.47;;;32.20;1.00;;;;;;5061961;28;20469;-76
2022/07/19 11:20:58;;;;;;;20.43;3.10;;;32.10;1.00;;;;;;5043543;28;20477;-75
2022/07/19 11:23:25;;;;;;;9.13;2.57;;;32.10;1.00;;;;;;5048365;28;20693;-75
2022/07/19 11:25:52;;;;;;;5.40;2.23;;;32.10;1.00;;;;;;5060633;28;20855;-75
2022/07/19 11:28:22;;;;;;;7.60;2.33;;;32.10;1.00;;;;;;5043413;28;20474;-75
2022/07/19 11:30:51;;;;;;;8.00;2.83;;;32.10;1.00;;;;;;5051577;28;20502;-75
2022/07/19 11:33:20;;;;;;;5.83;3.03;;;32.20;1.00;;;;;;5048178;28;20569;-75
2022/07/19 11:35:55;;;;;;;7.30;2.53;;;32.30;1.00;;;;;;5048714;28;20477;-75
2022/07/19 11:38:22;;;;;;;5.13;2.60;;;32.20;1.00;;;;;;5046072;28;20534;-75
2022/07/19 11:40:49;;;;;;;4.37;2.33;;;32.20;1.00;;;;;;5056969;28;20770;-75
2022/07/19 11:43:16;;;;;;;5.20;2.10;;;32.20;1.00;;;;;;5048599;28;20486;-76
2022/07/19 11:45:44;;;;;;;5.07;2.47;;;32.30;1.00;;;;;;5053773;28;20485;-75
2022/07/19 11:48:13;;;;;;;6.40;2.43;;;32.20;1.00;;;;;;5052449;28;21010;-75
2022/07/19 11:50:40;;;;;;;4.87;1.90;;;32.20;1.00;;;;;;5047888;28;20677;-75
2022/07/19 11:53:08;;;;;;;5.40;2.43;;;32.20;1.00;;;;;;5047575;28;20515;-75
2022/07/19 11:55:37;;;;;;;4.87;2.40;;;32.20;1.00;;;;;;5046799;28;20486;-75
2022/07/19 11:58:08;;;;;;;5.20;2.40;;;32.30;1.00;;;;;;5047856;28;21150;-76
2022/07/19 12:00:36;;;;;;;10.30;2.40;;;32.30;1.00;;;;;;5046272;28;20893;-75
2022/07/19 12:03:06;;;;;;;6.50;2.87;;;32.30;1.00;;;;;;5047459;28;20497;-75
2022/07/19 12:05:36;;;;;;;5.20;1.90;;;32.30;1.00;;;;;;5059800;28;20529;-75
2022/07/19 12:08:05;;;;;;;6.07;2.07;;;32.20;1.00;;;;;;5044998;28;20733;-75
2022/07/19 12:10:40;;;;;;;4.80;2.47;;;32.30;1.00;;;;;;5047139;28;20462;-75
2022/07/19 12:13:09;;;;;;;6.47;2.23;;;32.20;1.00;;;;;;5048221;28;20867;-75
2022/07/19 12:15:52;;;;;;;5.70;2.40;;;32.30;1.00;;;;;;5047228;28;20998;-75
2022/07/19 12:18:21;;;;;;;7.50;2.23;;;32.30;1.00;;;;;;5047037;28;20465;-76
2022/07/19 12:21:17;;;;;;;6.10;2.10;;;32.40;1.00;;;;;;5046358;28;20465;-75
2022/07/19 12:24:04;;;;;;;5.10;2.20;;;32.40;1.00;;;;;;5041712;28;20558;-74
2022/07/19 12:26:31;;;;;;;4.20;2.10;;;32.50;1.00;;;;;;5052706;28;20482;-74
2022/07/19 12:28:57;;;;;;;6.50;2.07;;;32.50;1.00;;;;;;5036566;28;21022;-74
2022/07/19 12:31:24;;;;;;;6.47;2.50;;;32.50;1.00;;;;;;5046615;28;20469;-74
2022/07/19 12:33:59;;;;;;;6.03;2.80;;;32.50;1.00;;;;;;5061433;28;20458;-73
2022/07/19 12:36:37;;;;;;;7.20;2.57;;;32.50;1.00;;;;;;5046857;28;20503;-74
2022/07/19 12:39:05;;;;;;;5.57;1.90;;;32.50;1.00;;;;;;5045200;28;20512;-73
2022/07/19 12:41:32;;;;;;;12.97;3.00;;;32.50;1.00;;;;;;5046191;28;20473;-74
2022/07/19 12:43:58;;;;;;;5.80;1.93;;;32.50;1.00;;;;;;5047887;28;20485;-73
2022/07/19 12:46:25;;;;;;;5.37;2.00;;;32.50;1.00;;;;;;5051681;28;20484;-74
2022/07/19 12:48:52;;;;;;;6.93;2.23;;;32.50;1.00;;;;;;5047283;28;20971;-73
2022/07/19 12:51:19;;;;;;;7.93;2.30;;;32.60;1.00;;;;;;5038474;28;20467;-73
2022/07/19 12:53:47;;;;;;;6.60;2.70;;;32.60;1.00;;;;;;5041972;28;20791;-73
2022/07/19 12:56:14;;;;;;;6.80;2.77;;;32.60;1.00;;;;;;5048424;28;20693;-75
2022/07/19 13:01:24;;;;;;;4.60;2.30;;;32.60;1.00;;;;;;5048238;28;20473;-75
2022/07/19 13:03:51;;;;;;;5.67;1.97;;;32.70;1.00;;;;;;5041590;28;20496;-74
2022/07/19 13:06:18;;;;;;;7.13;2.63;;;32.70;1.00;;;;;;5045827;28;20482;-76
2022/07/19 13:08:46;;;;;;;7.77;2.50;;;32.60;1.00;;;;;;5044436;28;20466;-75
2022/07/19 13:11:13;;;;;;;4.37;2.57;;;32.70;1.00;;;;;;5042683;28;20853;-74
2022/07/19 13:13:40;;;;;;;4.77;2.37;;;32.70;1.00;;;;;;5047353;28;20462;-75